Time;durP1;ratioP1;P1;durP2;ratioP2;P2;SDS_P1;SDS_P2;PMS_P1;PMS_P2;Temp;Humidity;BMP_temperature;BMP_pressure;BME280_temperature;BME280_humidity;BME280_pressure;Samples;Min_cycle;Max_cycle;Signal;HPM_P1;HPM_P2
2022/05/06 00:02:09;;;;;;;5.32;3.33;;;;;;;15.36;40.01;100641.59;4955273;29;20055;-60
2022/05/06 00:04:35;;;;;;;4.72;3.53;;;;;;;15.34;39.99;100642.63;4954927;29;20062;-60
2022/05/06 00:07:03;;;;;;;4.63;3.58;;;;;;;15.32;40.26;100644.53;4954892;29;20559;-61
2022/05/06 00:09:30;;;;;;;5.32;3.13;;;;;;;15.30;40.20;100643.78;4954470;29;20507;-60
2022/05/06 00:11:57;;;;;;;6.28;3.10;;;;;;;15.29;40.32;100644.72;4953480;29;20055;-60
2022/05/06 00:14:23;;;;;;;7.03;3.20;;;;;;;15.25;40.40;100644.06;4954858;29;20059;-59
2022/05/06 00:16:50;;;;;;;7.38;3.63;;;;;;;15.22;40.38;100645.09;4955057;29;20065;-60
2022/05/06 00:19:16;;;;;;;4.90;3.45;;;;;;;15.19;40.49;100640.00;4954472;29;20047;-61
2022/05/06 00:21:43;;;;;;;4.60;3.83;;;;;;;15.15;40.78;100643.78;4954700;29;20055;-61
2022/05/06 00:24:10;;;;;;;7.22;4.13;;;;;;;15.11;40.71;100647.59;4954542;29;20452;-60
2022/05/06 00:26:37;;;;;;;5.60;3.90;;;;;;;15.05;41.02;100640.00;4953321;29;20043;-59
2022/05/06 00:29:03;;;;;;;5.95;3.60;;;;;;;15.02;40.65;100640.19;4954740;29;20062;-64
2022/05/06 00:31:30;;;;;;;5.20;3.78;;;;;;;14.98;40.71;100644.81;4953851;28;20078;-60
2022/05/06 00:33:57;;;;;;;7.45;3.90;;;;;;;14.94;40.96;100648.59;4953958;29;20047;-61
2022/05/06 00:36:23;;;;;;;5.72;3.28;;;;;;;14.91;41.11;100648.81;4954443;29;20059;-61
2022/05/06 00:38:50;;;;;;;7.88;3.47;;;;;;;14.88;41.04;100643.69;4954340;29;20082;-60
2022/05/06 00:41:17;;;;;;;4.68;2.75;;;;;;;14.85;40.96;100658.00;4953953;29;20449;-59
2022/05/06 00:43:46;;;;;;;5.65;3.08;;;;;;;14.83;40.89;100646.59;4954362;29;20147;-60
2022/05/06 00:46:15;;;;;;;8.77;2.97;;;;;;;14.79;41.11;100651.25;4954125;29;20051;-59
2022/05/06 00:48:45;;;;;;;6.30;3.30;;;;;;;14.77;41.17;100654.94;4937238;29;20051;-60
2022/05/06 00:51:12;;;;;;;5.85;3.10;;;;;;;14.75;40.89;100649.69;4952764;29;20055;-60
2022/05/06 00:53:40;;;;;;;7.53;2.63;;;;;;;14.74;40.96;100642.69;4954055;29;20059;-59
2022/05/06 00:56:10;;;;;;;5.43;2.65;;;;;;;14.71;41.23;100646.41;4952672;29;20059;-59
2022/05/06 00:58:37;;;;;;;5.82;2.92;;;;;;;14.70;41.31;100649.97;4952669;29;20059;-59
2022/05/06 01:01:05;;;;;;;4.88;2.85;;;;;;;14.68;41.14;100648.34;4953586;29;20055;-60
2022/05/06 01:03:32;;;;;;;6.18;2.78;;;;;;;14.67;41.38;100646.66;4952884;29;20059;-60
2022/05/06 01:06:03;;;;;;;4.32;2.63;;;;;;;14.64;41.20;100650.34;4953807;29;20051;-59
2022/05/06 01:08:29;;;;;;;5.97;2.72;;;;;;;14.64;41.25;100653.00;4953709;29;20456;-60
2022/05/06 01:10:57;;;;;;;5.18;3.13;;;;;;;14.62;41.20;100651.38;4953538;29;20108;-60
2022/05/06 01:13:24;;;;;;;5.78;2.75;;;;;;;14.62;41.34;100654.03;4936832;29;20059;-60
2022/05/06 01:15:54;;;;;;;3.00;2.50;;;;;;;14.58;41.73;100650.72;4953671;29;20087;-59
2022/05/06 01:18:21;;;;;;;5.00;2.55;;;;;;;14.59;41.18;100657.72;4953759;29;20086;-60
2022/05/06 01:20:52;;;;;;;4.88;2.60;;;;;;;14.57;41.73;100649.00;4953264;29;20111;-60
2022/05/06 01:23:20;;;;;;;4.35;2.53;;;;;;;14.58;41.68;100643.59;4953993;29;20051;-59
2022/05/06 01:25:47;;;;;;;4.68;2.47;;;;;;;14.59;41.45;100650.59;4952410;29;20054;-59
2022/05/06 01:28:14;;;;;;;5.82;2.70;;;;;;;14.60;41.61;100654.13;4953529;29;20058;-59
2022/05/06 01:30:48;;;;;;;4.32;2.88;;;;;;;14.60;41.43;100648.81;4953204;29;20043;-59
2022/05/06 01:33:22;;;;;;;3.38;2.45;;;;;;;14.59;42.04;100647.97;4953262;29;20051;-59
2022/05/06 01:35:54;;;;;;;6.00;2.53;;;;;;;14.62;41.88;100652.25;4952243;29;20102;-61
2022/05/06 01:38:36;;;;;;;5.30;2.60;;;;;;;14.60;42.03;100646.19;4952253;29;20050;-59
2022/05/06 01:41:05;;;;;;;2.08;1.85;;;;;;;14.65;41.72;100648.56;4951802;29;20062;-62
2022/05/06 01:43:42;;;;;;;3.15;2.50;;;;;;;14.64;41.97;100657.44;4951469;28;20095;-60
2022/05/06 01:46:14;;;;;;;4.22;2.28;;;;;;;14.65;42.03;100652.03;4952867;29;20059;-61
2022/05/06 01:48:47;;;;;;;4.13;2.30;;;;;;;14.66;41.81;100650.25;4952028;29;20130;-59
2022/05/06 01:51:15;;;;;;;2.50;1.73;;;;;;;14.67;41.46;100650.16;4953010;29;20503;-60
2022/05/06 01:53:43;;;;;;;2.72;1.80;;;;;;;14.67;41.33;100660.78;4953029;29;20499;-60
2022/05/06 01:56:10;;;;;;;4.40;2.15;;;;;;;14.68;41.79;100656.31;4951798;29;20059;-59
2022/05/06 01:58:37;;;;;;;3.22;2.30;;;;;;;14.67;41.62;100654.59;4936257;29;20480;-60
2022/05/06 02:01:04;;;;;;;3.25;2.15;;;;;;;14.67;41.74;100652.81;4952629;29;20051;-59
2022/05/06 02:06:16;;;;;;;4.80;2.28;;;;;;;14.67;41.73;100647.53;4952851;29;20051;-59
2022/05/06 02:08:43;;;;;;;4.32;2.10;;;;;;;14.68;41.73;100659.81;4952871;29;20503;-60
2022/05/06 02:11:11;;;;;;;3.35;2.33;;;;;;;14.67;41.83;100649.31;4952795;29;20055;-59
2022/05/06 02:13:38;;;;;;;4.95;2.35;;;;;;;14.67;41.76;100655.47;4952835;29;20122;-59
2022/05/06 02:16:05;;;;;;;4.88;2.13;;;;;;;14.67;41.76;100663.41;4952826;29;20106;-60
2022/05/06 02:18:32;;;;;;;4.30;2.50;;;;;;;14.67;41.64;100650.16;4952522;29;20408;-61
2022/05/06 02:21:00;;;;;;;6.50;2.08;;;;;;;14.66;41.76;100647.59;4952304;29;20133;-60
2022/05/06 02:23:27;;;;;;;4.20;2.22;;;;;;;14.65;41.74;100646.75;4951404;29;20062;-60
2022/05/06 02:25:54;;;;;;;3.33;1.88;;;;;;;14.65;41.84;100648.56;4952432;29;20054;-59
2022/05/06 02:28:20;;;;;;;3.75;2.28;;;;;;;14.64;41.54;100646.84;4952439;29;20055;-58
2022/05/06 02:33:32;;;;;;;3.83;2.70;;;;;;;14.60;41.75;100646.19;4952363;29;20047;-58
2022/05/06 02:36:00;;;;;;;2.97;2.03;;;;;;;14.58;41.85;100651.56;4952347;29;20051;-59
2022/05/06 02:38:27;;;;;;;6.05;2.20;;;;;;;14.55;41.98;100651.72;4952214;29;20062;-60
2022/05/06 02:40:55;;;;;;;2.92;1.90;;;;;;;14.53;41.94;100650.13;4951926;29;20043;-62
2022/05/06 02:43:22;;;;;;;4.53;2.33;;;;;;;14.51;42.00;100654.66;4952309;29;20059;-62
2022/05/06 02:45:48;;;;;;;2.95;2.10;;;;;;;14.48;41.74;100650.41;4951089;29;20055;-58
2022/05/06 02:48:15;;;;;;;4.20;2.20;;;;;;;14.47;42.32;100651.38;4952285;29;20053;-60
2022/05/06 02:50:42;;;;;;;4.80;2.00;;;;;;;14.44;42.13;100644.41;4952196;29;20058;-60
2022/05/06 02:53:10;;;;;;;10.45;2.40;;;;;;;14.43;42.14;100653.31;4951194;29;20049;-58
2022/05/06 02:55:38;;;;;;;8.45;2.80;;;;;;;14.42;42.09;100648.97;4953260;28;20047;-61
2022/05/06 02:58:06;;;;;;;4.10;2.33;;;;;;;14.40;42.14;100642.94;4954988;29;20055;-61
2022/05/06 03:00:32;;;;;;;4.93;2.47;;;;;;;14.39;42.20;100646.50;4938882;29;20055;-60
2022/05/06 03:02:59;;;;;;;3.80;2.58;;;;;;;14.39;41.97;100640.38;4955893;29;20055;-61
2022/05/06 03:05:26;;;;;;;3.95;2.67;;;;;;;14.37;42.05;100643.09;4956175;29;20070;-59
2022/05/06 03:07:53;;;;;;;6.22;2.80;;;;;;;14.35;41.96;100644.97;4955882;29;20058;-62
2022/05/06 03:10:19;;;;;;;5.30;2.50;;;;;;;14.34;41.84;100640.63;4955896;29;20059;-59
2022/05/06 03:12:49;;;;;;;7.80;3.15;;;;;;;14.33;41.88;100644.22;4955830;29;20511;-59
2022/05/06 03:15:16;;;;;;;7.30;3.03;;;;;;;14.30;41.58;100641.75;4955639;29;20051;-59
2022/05/06 03:17:42;;;;;;;5.72;2.92;;;;;;;14.28;41.99;100644.47;4956030;29;20047;-58
2022/05/06 03:20:09;;;;;;;6.45;2.80;;;;;;;14.28;41.73;100643.66;4955720;29;20059;-60
2022/05/06 03:22:45;;;;;;;5.82;2.95;;;;;;;14.25;42.05;100646.47;4955871;29;20062;-54
2022/05/06 03:25:14;;;;;;;4.53;2.97;;;;;;;14.26;41.90;100648.16;4955823;29;20051;-58
2022/05/06 03:27:59;;;;;;;7.80;3.47;;;;;;;14.26;41.82;100643.72;4954244;29;20055;-60
2022/05/06 03:30:28;;;;;;;7.18;3.30;;;;;;;14.26;41.72;100640.22;4955893;29;20115;-60
2022/05/06 03:32:55;;;;;;;5.97;3.05;;;;;;;14.27;41.74;100640.13;4955683;29;20066;-61
2022/05/06 03:35:22;;;;;;;5.10;3.40;;;;;;;14.28;41.71;100636.53;4955596;29;20051;-59
2022/05/06 03:37:51;;;;;;;6.78;3.85;;;;;;;14.29;41.86;100642.69;4955414;29;20055;-61
2022/05/06 03:40:18;;;;;;;6.78;3.55;;;;;;;14.32;41.74;100629.28;4955196;29;20491;-58
2022/05/06 03:42:45;;;;;;;10.43;3.88;;;;;;;14.33;41.76;100637.09;4955829;29;20062;-61
2022/05/06 03:45:11;;;;;;;10.68;3.63;;;;;;;14.35;41.85;100631.72;4955409;29;20047;-62
2022/05/06 03:47:38;;;;;;;5.22;3.50;;;;;;;14.38;41.83;100638.63;4955269;29;20503;-60
2022/05/06 03:52:51;;;;;;;5.60;3.42;;;;;;;14.40;41.59;100637.63;4955052;29;20067;-60
2022/05/06 03:55:18;;;;;;;6.43;3.92;;;;;;;14.40;41.70;100634.97;4955225;29;20046;-60
2022/05/06 03:57:46;;;;;;;8.48;3.67;;;;;;;14.41;41.65;100641.97;4953981;29;20566;-60
2022/05/06 04:00:14;;;;;;;5.80;3.75;;;;;;;14.42;41.78;100640.16;4937729;29;20051;-58
2022/05/06 04:02:42;;;;;;;8.23;3.83;;;;;;;14.44;41.75;100638.28;4953919;29;20055;-59
2022/05/06 04:05:09;;;;;;;7.63;3.72;;;;;;;14.43;41.80;100642.72;4954778;29;20058;-59
2022/05/06 04:07:36;;;;;;;8.20;4.10;;;;;;;14.45;41.72;100642.63;4954822;28;20410;-61
2022/05/06 04:10:03;;;;;;;4.90;3.30;;;;;;;14.42;41.66;100638.38;4954631;29;20054;-57
2022/05/06 04:12:30;;;;;;;4.45;3.03;;;;;;;14.42;41.75;100638.38;4937878;29;20047;-58
2022/05/06 04:14:57;;;;;;;7.15;3.63;;;;;;;14.42;41.72;100648.97;4954558;29;20051;-60
2022/05/06 04:17:23;;;;;;;8.70;4.00;;;;;;;14.42;41.61;100648.97;4954745;29;20058;-55
2022/05/06 04:25:21;;;;;;;13.05;7.65;;;;;;;14.45;41.44;100651.44;4954817;29;20047;-59
2022/05/06 04:27:48;;;;;;;11.38;7.18;;;;;;;14.48;41.79;100649.56;4954580;29;20055;-60
2022/05/06 04:30:15;;;;;;;14.98;7.82;;;;;;;14.48;41.71;100650.41;4954213;29;20055;-58
2022/05/06 04:32:41;;;;;;;11.90;7.80;;;;;;;14.51;41.79;100654.66;4954785;29;20055;-58
2022/05/06 04:35:09;;;;;;;9.45;6.10;;;;;;;14.53;41.56;100653.63;4954509;29;20060;-58
2022/05/06 04:37:36;;;;;;;8.52;4.93;;;;;;;14.57;41.59;100656.94;4937353;29;20059;-58
2022/05/06 04:40:04;;;;;;;8.50;5.07;;;;;;;14.59;41.44;100655.06;4937237;29;20460;-61
2022/05/06 04:42:30;;;;;;;9.77;5.60;;;;;;;14.63;41.62;100655.72;4936739;29;20051;-57
2022/05/06 04:44:57;;;;;;;8.20;5.13;;;;;;;14.66;41.32;100652.91;4953824;29;20500;-59
2022/05/06 04:47:24;;;;;;;7.93;5.45;;;;;;;14.68;41.53;100657.16;4954140;29;20092;-59
2022/05/06 04:49:51;;;;;;;7.07;5.07;;;;;;;14.71;41.46;100662.28;4954056;29;20066;-60
2022/05/06 04:52:18;;;;;;;6.90;4.57;;;;;;;14.73;41.42;100657.75;4954108;29;20104;-59
2022/05/06 04:54:44;;;;;;;8.30;5.47;;;;;;;14.77;41.70;100665.53;4954116;29;20087;-60
2022/05/06 04:57:11;;;;;;;8.88;4.90;;;;;;;14.79;41.55;100669.81;4954059;29;20062;-61
2022/05/06 04:59:37;;;;;;;7.43;5.20;;;;;;;14.80;41.54;100670.66;4953636;29;20059;-59
2022/05/06 05:02:04;;;;;;;8.93;5.00;;;;;;;14.80;41.73;100671.50;4954353;29;20070;-60
2022/05/06 05:04:31;;;;;;;6.97;5.00;;;;;;;14.81;41.46;100667.91;4954053;29;20118;-62
2022/05/06 05:07:00;;;;;;;10.05;4.80;;;;;;;14.81;41.55;100673.19;4953901;29;20452;-60
2022/05/06 05:09:26;;;;;;;8.80;5.72;;;;;;;14.82;41.66;100666.97;4953491;29;20055;-59
2022/05/06 05:11:54;;;;;;;8.95;5.60;;;;;;;14.86;41.69;100675.59;4953257;29;20054;-61
2022/05/06 05:14:21;;;;;;;9.00;5.45;;;;;;;14.90;41.68;100673.59;4954049;29;20115;-59
2022/05/06 05:16:49;;;;;;;8.93;5.60;;;;;;;14.92;41.60;100675.22;4936707;29;20518;-60
2022/05/06 05:19:16;;;;;;;11.95;5.95;;;;;;;14.97;41.52;100680.25;4952849;28;20059;-62
2022/05/06 05:21:43;;;;;;;7.95;4.82;;;;;;;15.00;41.66;100684.50;4953387;29;20055;-59
2022/05/06 05:24:09;;;;;;;8.20;5.53;;;;;;;15.03;41.71;100681.66;4953589;29;20763;-60
2022/05/06 05:26:36;;;;;;;9.07;5.40;;;;;;;15.07;41.82;100678.72;4953449;29;20160;-59
2022/05/06 05:29:04;;;;;;;8.73;5.13;;;;;;;15.12;41.56;100686.41;4953925;29;20055;-60
2022/05/06 05:31:31;;;;;;;7.93;5.82;;;;;;;15.15;41.79;100680.91;4953404;29;20134;-59
2022/05/06 05:33:58;;;;;;;9.23;5.38;;;;;;;15.19;41.67;100681.56;4953409;29;20047;-57
2022/05/06 05:36:25;;;;;;;10.43;5.85;;;;;;;15.23;41.73;100689.25;4953335;29;20053;-57
2022/05/06 05:38:51;;;;;;;10.38;6.30;;;;;;;15.28;41.49;100693.44;4953212;29;20059;-61
2022/05/06 05:41:18;;;;;;;8.05;5.70;;;;;;;15.31;41.51;100693.22;4952974;29;20047;-58
2022/05/06 05:49:15;;;;;;;7.47;5.30;;;;;;;15.36;41.30;100685.81;4953083;29;20492;-59
2022/05/06 05:51:43;;;;;;;11.05;5.43;;;;;;;15.37;41.37;100684.91;4952914;29;20073;-61
2022/05/06 05:54:10;;;;;;;10.23;6.00;;;;;;;15.37;41.45;100690.19;4953307;29;20051;-58
2022/05/06 05:56:36;;;;;;;9.55;5.85;;;;;;;15.39;41.61;100688.28;4953170;29;20074;-60
2022/05/06 05:59:03;;;;;;;9.93;5.82;;;;;;;15.40;41.62;100695.28;4953076;29;20084;-57
2022/05/06 06:01:30;;;;;;;9.40;5.70;;;;;;;15.43;41.75;100699.56;4952819;29;20051;-59
2022/05/06 06:03:57;;;;;;;12.50;6.78;;;;;;;15.45;41.71;100701.19;4951534;29;20112;-59
2022/05/06 06:06:24;;;;;;;12.23;6.50;;;;;;;15.49;41.84;100700.06;4953213;29;20051;-59
2022/05/06 06:08:50;;;;;;;11.73;6.57;;;;;;;15.53;41.86;100694.53;4953083;29;20054;-60
2022/05/06 06:11:17;;;;;;;8.25;5.55;;;;;;;15.55;42.06;100696.13;4952817;29;20051;-60
2022/05/06 06:13:44;;;;;;;14.73;6.28;;;;;;;15.60;42.00;100690.56;4952999;29;20449;-61
2022/05/06 06:16:10;;;;;;;10.20;6.47;;;;;;;15.65;42.17;100688.44;4952944;29;20051;-58
2022/05/06 06:18:37;;;;;;;10.93;6.25;;;;;;;15.70;42.22;100694.31;4952753;29;20111;-60
2022/05/06 06:21:04;;;;;;;8.32;5.45;;;;;;;15.75;42.29;100686.06;4952498;29;20059;-60
2022/05/06 06:23:31;;;;;;;12.07;6.10;;;;;;;15.81;42.19;100693.63;4953069;29;20550;-60
2022/05/06 06:25:58;;;;;;;14.55;6.68;;;;;;;15.86;42.30;100701.31;4952880;29;20483;-58
2022/05/06 06:28:25;;;;;;;10.40;6.63;;;;;;;15.92;42.40;100700.91;4935599;29;20616;-57
2022/05/06 06:30:52;;;;;;;9.75;6.22;;;;;;;15.99;42.60;100704.03;4952330;28;20048;-58
2022/05/06 06:33:18;;;;;;;9.15;6.20;;;;;;;16.05;42.37;100705.44;4952378;29;20490;-57
2022/05/06 06:35:45;;;;;;;8.82;5.72;;;;;;;16.11;42.59;100700.59;4935595;29;20059;-59
2022/05/06 06:38:11;;;;;;;9.85;5.75;;;;;;;16.20;42.59;100703.59;4952452;29;20100;-59
2022/05/06 06:40:38;;;;;;;9.68;6.47;;;;;;;16.26;42.41;100704.03;4952300;29;20051;-59
2022/05/06 06:43:05;;;;;;;13.60;5.65;;;;;;;16.33;42.49;100707.16;4952283;29;20114;-59
2022/05/06 06:45:31;;;;;;;9.68;6.07;;;;;;;16.41;42.24;100711.97;4952506;29;20047;-61
2022/05/06 06:47:58;;;;;;;9.57;6.07;;;;;;;16.47;42.35;100714.22;4952389;29;20124;-59
2022/05/06 06:50:25;;;;;;;17.23;6.05;;;;;;;16.53;42.27;100705.81;4952022;29;20051;-60
2022/05/06 06:52:52;;;;;;;9.80;5.93;;;;;;;16.58;42.11;100717.94;4952142;29;20480;-57
2022/05/06 06:55:19;;;;;;;10.05;6.05;;;;;;;16.63;42.28;100721.16;4952366;29;20058;-59
2022/05/06 06:57:45;;;;;;;13.98;5.45;;;;;;;16.66;41.95;100718.28;4952312;29;20055;-61
2022/05/06 07:00:12;;;;;;;15.95;6.50;;;;;;;16.70;42.24;100714.47;4951855;29;20162;-59
2022/05/06 07:02:40;;;;;;;11.50;6.30;;;;;;;16.76;42.02;100715.84;4952345;29;20078;-56
2022/05/06 07:05:08;;;;;;;9.00;6.13;;;;;;;16.80;42.49;100712.91;4952068;29;20135;-60
2022/05/06 07:11:52;;;;;;;13.88;6.45;;;;;;;16.90;42.79;100721.09;4952137;29;20047;-60
2022/05/06 07:13:33;;;;;;;10.68;6.43;;;;;;;16.98;42.81;100725.91;4952241;29;20058;-60
2022/05/06 07:15:59;;;;;;;9.68;6.30;;;;;;;17.01;42.69;100730.97;4952155;29;20086;-59
2022/05/06 07:18:26;;;;;;;11.80;6.60;;;;;;;17.05;43.03;100721.88;4952191;29;20058;-60
2022/05/06 07:20:54;;;;;;;9.57;6.70;;;;;;;17.11;43.26;100719.72;4952050;29;20468;-60
2022/05/06 07:23:23;;;;;;;8.32;6.07;;;;;;;17.15;43.20;100716.75;4952180;29;20115;-56
2022/05/06 07:25:49;;;;;;;9.27;6.30;;;;;;;17.19;43.29;100720.91;4951994;29;20511;-57
2022/05/06 07:28:16;;;;;;;11.40;6.80;;;;;;;17.25;43.35;100729.44;4951986;29;20055;-62
2022/05/06 07:30:43;;;;;;;8.80;6.30;;;;;;;17.29;43.38;100725.59;4951708;29;20059;-59
2022/05/06 07:33:10;;;;;;;12.77;7.80;;;;;;;17.32;43.20;100726.22;4951884;29;20063;-57
2022/05/06 07:35:38;;;;;;;11.63;7.70;;;;;;;17.37;43.47;100725.03;4951838;29;20059;-62
2022/05/06 07:38:05;;;;;;;10.50;8.00;;;;;;;17.41;43.36;100721.22;4951728;29;20484;-60
2022/05/06 07:40:32;;;;;;;10.45;7.22;;;;;;;17.45;43.59;100723.56;4951902;28;20059;-58
2022/05/06 07:42:58;;;;;;;9.50;7.28;;;;;;;17.50;43.37;100722.38;4954836;29;20051;-62
2022/05/06 07:45:25;;;;;;;10.35;6.90;;;;;;;17.54;43.58;100724.69;4955448;29;20047;-56
2022/05/06 07:47:52;;;;;;;12.52;7.63;;;;;;;17.58;43.48;100718.19;4955229;29;20083;-60
2022/05/06 07:50:31;;;;;;;11.77;8.05;;;;;;;17.65;43.46;100723.94;4955042;29;20063;-60
2022/05/06 07:52:58;;;;;;;11.82;8.63;;;;;;;17.70;43.55;100718.28;4938479;29;20051;-61
2022/05/06 07:55:25;;;;;;;13.20;8.65;;;;;;;17.79;43.06;100720.28;4955269;29;20055;-60
2022/05/06 07:57:53;;;;;;;14.85;8.95;;;;;;;17.84;43.26;100726.13;4938129;29;20054;-58
2022/05/06 08:00:24;;;;;;;12.30;8.30;;;;;;;17.91;43.28;100726.53;4954814;29;20525;-58
2022/05/06 08:05:39;;;;;;;13.55;8.38;;;;;;;18.04;43.87;100728.31;4955391;29;20048;-59
2022/05/06 08:08:06;;;;;;;12.77;8.48;;;;;;;18.12;42.98;100727.78;4955001;29;20055;-57
2022/05/06 08:10:33;;;;;;;10.00;8.07;;;;;;;18.17;42.58;100722.97;4953577;29;20451;-60
2022/05/06 08:13:01;;;;;;;11.00;8.32;;;;;;;18.24;43.37;100724.19;4954935;29;20150;-60
2022/05/06 08:15:28;;;;;;;12.60;7.85;;;;;;;18.31;43.27;100719.25;4937663;29;20055;-59
2022/05/06 08:17:55;;;;;;;11.68;7.88;;;;;;;18.36;43.36;100720.63;4954982;29;20062;-60
2022/05/06 08:20:21;;;;;;;13.98;8.98;;;;;;;18.46;43.04;100727.94;4954789;29;20527;-59
2022/05/06 08:22:48;;;;;;;13.70;8.80;;;;;;;18.54;43.15;100717.53;4954874;29;20059;-59
2022/05/06 08:25:15;;;;;;;11.35;9.27;;;;;;;18.62;42.72;100723.16;4954772;29;20062;-60
2022/05/06 08:27:55;;;;;;;10.88;8.30;;;;;;;18.72;42.43;100715.31;4954637;29;20062;-60
2022/05/06 08:30:22;;;;;;;11.13;8.77;;;;;;;18.83;42.24;100724.28;4946732;29;20078;-60
2022/05/06 08:32:48;;;;;;;11.38;8.68;;;;;;;18.92;42.61;100714.75;4954438;29;20514;-57
2022/05/06 08:35:15;;;;;;;13.18;7.82;;;;;;;19.03;42.58;100725.44;4954703;29;20082;-60
2022/05/06 08:37:44;;;;;;;9.27;8.15;;;;;;;19.14;42.72;100727.31;4954587;29;20055;-60
2022/05/06 08:40:22;;;;;;;11.63;8.48;;;;;;;19.24;42.92;100730.94;4954089;29;20051;-60
2022/05/06 08:42:49;;;;;;;10.93;8.88;;;;;;;19.38;43.10;100731.69;4954698;29;20047;-60
2022/05/06 08:50:51;;;;;;;13.07;10.63;;;;;;;19.73;42.86;100730.69;4954098;29;20051;-59
2022/05/06 08:53:26;;;;;;;11.25;9.40;;;;;;;19.84;42.61;100732.50;4936008;29;20506;-63
2022/05/06 08:55:57;;;;;;;13.90;9.60;;;;;;;19.92;41.71;100730.03;4954174;29;20408;-59
2022/05/06 08:58:25;;;;;;;12.15;9.65;;;;;;;19.99;42.21;100725.09;4954265;29;20051;-60
2022/05/06 09:01:07;;;;;;;12.60;9.23;;;;;;;20.02;42.85;100730.19;4936651;29;20065;-63
2022/05/06 09:03:43;;;;;;;11.73;8.55;;;;;;;20.13;42.52;100726.63;4953100;29;20055;-61
2022/05/06 09:06:19;;;;;;;12.52;8.98;;;;;;;20.18;42.26;100732.44;4936814;29;20086;-59
2022/05/06 09:08:47;;;;;;;12.50;8.88;;;;;;;20.30;41.80;100727.91;4954024;29;20054;-59
2022/05/06 09:11:16;;;;;;;17.00;9.20;;;;;;;20.36;42.42;100726.53;4936607;29;20063;-58
2022/05/06 09:13:49;;;;;;;15.43;10.02;;;;;;;20.46;41.54;100729.31;4936624;29;20051;-60
2022/05/06 09:16:39;;;;;;;11.63;9.13;;;;;;;20.53;41.35;100730.47;4953899;29;20055;-58
2022/05/06 09:19:12;;;;;;;11.57;8.13;;;;;;;20.64;41.89;100726.88;4936717;29;20062;-60
2022/05/06 09:21:41;;;;;;;9.55;8.52;;;;;;;20.73;42.29;100735.13;4936644;29;20051;-61
2022/05/06 09:24:18;;;;;;;8.55;7.35;;;;;;;20.78;42.07;100732.94;4953568;29;20548;-59
2022/05/06 09:27:11;;;;;;;7.95;6.95;;;;;;;20.86;41.40;100735.78;4936610;29;20058;-59
2022/05/06 09:29:41;;;;;;;12.35;7.85;;;;;;;20.99;41.20;100735.63;4947899;29;20059;-60
2022/05/06 09:32:26;;;;;;;10.52;8.35;;;;;;;21.05;41.37;100740.44;4953383;29;20111;-59
2022/05/06 09:34:54;;;;;;;10.88;8.10;;;;;;;21.17;41.11;100730.50;4952461;29;20055;-59
2022/05/06 09:37:47;;;;;;;10.35;8.38;;;;;;;21.25;41.41;100735.19;4953413;29;20047;-60
2022/05/06 09:40:18;;;;;;;10.23;8.77;;;;;;;21.40;41.90;100722.28;4935992;29;20494;-60
2022/05/06 09:42:46;;;;;;;8.20;7.03;;;;;;;21.54;42.25;100730.94;4936303;29;20051;-59
2022/05/06 09:45:14;;;;;;;6.85;5.35;;;;;;;21.65;41.42;100736.19;4953360;29;20060;-60
2022/05/06 09:47:42;;;;;;;6.68;5.20;;;;;;;21.79;40.85;100731.47;4936260;29;20055;-59
2022/05/06 09:50:11;;;;;;;6.43;5.53;;;;;;;21.89;40.67;100732.34;4953219;29;20054;-60
2022/05/06 09:52:38;;;;;;;7.18;5.78;;;;;;;21.99;40.59;100727.81;4953251;29;20101;-60
2022/05/06 09:55:06;;;;;;;7.90;6.28;;;;;;;22.10;40.41;100724.16;4953022;29;20061;-60
2022/05/06 09:57:36;;;;;;;7.38;5.93;;;;;;;22.21;39.96;100717.84;4952879;29;20047;-59
2022/05/06 10:00:04;;;;;;;5.65;5.03;;;;;;;22.31;39.67;100720.53;4952902;29;20133;-60
2022/05/06 10:02:31;;;;;;;6.57;5.22;;;;;;;22.38;39.24;100715.44;4935685;29;20054;-60
2022/05/06 10:04:59;;;;;;;9.63;5.90;;;;;;;22.42;38.95;100707.97;4952590;28;20498;-60
2022/05/06 10:07:27;;;;;;;8.38;5.57;;;;;;;22.47;39.04;100713.75;4952886;29;20055;-60
2022/05/06 10:10:05;;;;;;;7.35;5.20;;;;;;;22.51;39.06;100713.31;4952479;29;20052;-60
2022/05/06 10:12:40;;;;;;;7.43;6.25;;;;;;;22.58;39.83;100705.56;4952900;29;20637;-62
2022/05/06 10:15:09;;;;;;;5.85;5.28;;;;;;;22.69;38.85;100701.06;4952902;29;20061;-60
2022/05/06 10:17:56;;;;;;;6.00;4.80;;;;;;;22.76;38.52;100702.16;4935735;29;20090;-61
2022/05/06 10:20:46;;;;;;;5.28;4.53;;;;;;;22.86;38.63;100704.81;4952542;29;20066;-60
2022/05/06 10:23:15;;;;;;;5.72;4.82;;;;;;;22.99;38.91;100697.28;4952852;29;20055;-60
2022/05/06 10:25:42;;;;;;;7.35;5.47;;;;;;;23.10;39.09;100700.81;4935661;29;20058;-62
2022/05/06 10:34:10;;;;;;;5.32;4.65;;;;;;;23.41;36.66;100689.81;4952779;29;20149;-60
2022/05/06 10:36:50;;;;;;;5.65;4.55;;;;;;;23.52;37.12;100678.84;4952541;29;20077;-60
2022/05/06 10:39:21;;;;;;;7.13;4.88;;;;;;;23.66;37.68;100677.50;4935278;29;20055;-61
2022/05/06 10:42:11;;;;;;;6.40;3.90;;;;;;;23.78;37.37;100685.38;4935407;29;20066;-60
2022/05/06 10:44:44;;;;;;;5.30;4.30;;;;;;;24.00;37.16;100678.69;4952747;29;20066;-60
2022/05/06 10:47:16;;;;;;;5.30;4.38;;;;;;;24.25;36.84;100676.25;4952227;29;20051;-62
2022/05/06 10:49:51;;;;;;;6.57;5.13;;;;;;;24.60;37.89;100668.28;4952378;29;20047;-62
2022/05/06 10:52:20;;;;;;;7.07;4.93;;;;;;;25.00;37.85;100668.72;4952361;29;20299;-61
2022/05/06 10:55:00;;;;;;;6.90;5.18;;;;;;;25.44;37.82;100669.56;4952289;29;20058;-62
2022/05/06 10:57:46;;;;;;;4.95;4.28;;;;;;;25.88;36.25;100669.41;4945362;29;20519;-62
2022/05/06 11:00:14;;;;;;;4.95;4.22;;;;;;;26.24;35.31;100667.41;4951922;29;20062;-62
2022/05/06 11:02:40;;;;;;;5.72;4.05;;;;;;;26.42;34.02;100675.34;4950857;29;20499;-60
2022/05/06 11:05:12;;;;;;;4.78;4.28;;;;;;;26.47;33.25;100674.84;4952348;29;20055;-60
2022/05/06 11:07:40;;;;;;;4.85;4.05;;;;;;;26.58;34.96;100671.81;4935149;29;20047;-59
2022/05/06 11:10:09;;;;;;;5.97;4.97;;;;;;;26.79;33.95;100667.69;4934829;29;20052;-59
2022/05/06 11:12:37;;;;;;;5.35;4.43;;;;;;;27.00;33.09;100669.88;4950954;29;20499;-60
2022/05/06 11:15:06;;;;;;;8.35;4.55;;;;;;;27.10;32.49;100661.53;4952179;29;20113;-62
2022/05/06 11:17:33;;;;;;;6.20;5.38;;;;;;;27.16;33.91;100673.50;4937597;29;20066;-60
2022/05/06 11:20:27;;;;;;;5.45;4.28;;;;;;;27.23;33.71;100663.69;4955772;29;20086;-60
2022/05/06 11:23:05;;;;;;;10.23;3.50;;;;;;;27.36;31.90;100667.72;4955764;29;20047;-59
2022/05/06 11:25:42;;;;;;;4.55;3.25;;;;;;;27.35;30.82;100661.44;4939047;29;20055;-61
2022/05/06 11:28:14;;;;;;;5.18;3.20;;;;;;;27.23;30.96;100655.59;4955712;29;20047;-60
2022/05/06 11:30:45;;;;;;;5.30;4.25;;;;;;;27.10;30.71;100658.84;4938479;29;20059;-60
2022/05/06 11:33:31;;;;;;;7.28;4.43;;;;;;;27.06;33.29;100658.34;4938547;29;20069;-60
2022/05/06 11:36:03;;;;;;;7.10;4.20;;;;;;;27.33;32.67;100655.38;4955945;29;20051;-60
2022/05/06 11:38:36;;;;;;;6.97;4.70;;;;;;;27.70;32.50;100661.94;4955605;29;20668;-61
2022/05/06 11:41:10;;;;;;;6.60;4.35;;;;;;;28.20;32.33;100658.91;4955278;29;20055;-60
2022/05/06 11:43:38;;;;;;;4.88;3.80;;;;;;;28.78;33.14;100653.97;4938342;29;20059;-61
2022/05/06 11:48:50;;;;;;;2.97;2.58;;;;;;;29.93;31.23;100650.78;4954270;29;20476;-61
2022/05/06 11:51:24;;;;;;;3.63;2.33;;;;;;;30.41;29.00;100652.91;4938232;29;20055;-60
2022/05/06 11:53:53;;;;;;;4.50;2.60;;;;;;;30.91;29.36;100641.13;4955243;29;20047;-61
2022/05/06 11:56:21;;;;;;;3.38;2.80;;;;;;;31.39;29.09;100638.63;4955072;29;20055;-59
2022/05/06 11:58:48;;;;;;;3.83;2.70;;;;;;;31.83;28.45;100629.09;4955287;29;20059;-61
2022/05/06 12:01:29;;;;;;;3.22;2.70;;;;;;;32.25;28.45;100644.41;4954947;29;20503;-60
2022/05/06 12:04:00;;;;;;;2.78;2.50;;;;;;;32.69;27.02;100633.03;4955113;29;20487;-60
2022/05/06 12:06:47;;;;;;;4.75;2.95;;;;;;;33.04;26.86;100640.97;4954097;29;20059;-61
2022/05/06 12:09:22;;;;;;;3.00;2.55;;;;;;;33.36;25.95;100630.09;4954969;29;20062;-62
2022/05/06 12:12:07;;;;;;;4.10;2.88;;;;;;;33.58;25.98;100618.88;4955137;29;20058;-61